Terminal Aerodrome Forecast
Issued by NWS Quad Cities IA IL

Home | Current Version | Previous Version | Text Only | Print | Product List | Glossary On
Versions: 1 2 3 4 5 6 7 8 9 10 11 12 13 14 15
000
FTUS43 KDVN 260520
TAFDBQ
TAF
KDBQ 260520Z 2606/2706 21006KT P6SM SCT060 BKN100
      TEMPO 2611/2614 4SM TSRA BR BKN040CB
     FM261500 22010KT P6SM BKN050 PROB30 2700/2703 4SM TSRA
      BKN040CB=

USA.gov is the U.S. government's official web portal to all federal, state and local government web resources and services.